Pagrindinis puslapis
METAR-TAF:

METAR-TAF

Oro uostai :

Savoonga, Aliaska, Jungtinės Amerikos Valstijos

platuma: 63-41N, ilguma: 170-30W, Aukštis: 16 m

Dabartinis oras

Ataskaita buvo paskelbta 1 valandą ir 50 minutes, ne 23:56 UTC
Vėjas 6 kt iš Rytų/Šiaurės Rytų
Temperatūra 5°C
Drėgmė 87%
Slėgis 995 hPa
Matomumas: 11.3 km
Apsiniaukę ne aukštis 700 ft

METAR: PASA 242356Z AUTO 06006KT 7SM OVC007 05/03 A2937 RMK AO2 SLP946 T00500033 10056 20050 51007

Laikas: 17:46 (01:46 UTC)


TAF: trūkstamas

Orai ataskaitas ir orų prognozės (METAR, TAF).

turimą stotys yra geltonos ir raudonos taškus žemėlapyje.

Perkelti pele per norėdami pamatyti stoties vardą.

Tada spustelėkite, norėdami matyti oro stebėjimo ir prognozės.

Norėdami pakeisti žemėlapį: spustelėkite ant žalios mygtukų su juodo kryžiaus žemyn,; žalią mygtuką su brūkšneliu, jei norite nutolinti; arba žalių rodyklių gretimoms žemėlapius.


METAR-TAF: